Time;durP1;ratioP1;P1;durP2;ratioP2;P2;SDS_P1;SDS_P2;PMS_P1;PMS_P2;Temp;Humidity;BMP_temperature;BMP_pressure;BME280_temperature;BME280_humidity;BME280_pressure;Samples;Min_cycle;Max_cycle;Signal;HPM_P1;HPM_P2
2022/11/18 00:01:58;;;;;;;;;0.00;0.00;;;;;;;;4718889;30;28267;-96
2022/11/18 00:04:23;;;;;;;;;0.00;0.00;;;;;;;;4719745;30;30337;-96
2022/11/18 00:06:48;;;;;;;;;0.00;0.00;;;;;;;;4719104;30;29650;-96
2022/11/18 00:09:13;;;;;;;;;0.00;0.00;;;;;;;;4720225;30;28270;-96
2022/11/18 00:14:26;;;;;;;;;0.00;0.00;;;;;;;;4742662;30;28123;-96
2022/11/18 00:16:55;;;;;;;;;0.00;0.00;;;;;;;;4724301;30;29032;-96
2022/11/18 00:19:24;;;;;;;;;0.00;0.00;;;;;;;;4735959;30;27934;-96
2022/11/18 00:21:49;;;;;;;;;0.00;0.00;;;;;;;;4735596;30;27947;-96
2022/11/18 00:24:15;;;;;;;;;0.00;0.00;;;;;;;;4736163;30;30138;-96
2022/11/18 00:26:40;;;;;;;;;0.00;0.00;;;;;;;;4735714;30;28606;-96
2022/11/18 00:29:05;;;;;;;;;0.00;0.00;;;;;;;;4737225;30;28481;-96
2022/11/18 00:31:31;;;;;;;;;0.00;0.00;;;;;;;;4738149;30;27945;-96
2022/11/18 00:33:56;;;;;;;;;0.00;0.00;;;;;;;;4738309;30;29729;-96
2022/11/18 00:36:21;;;;;;;;;0.00;0.00;;;;;;;;4723101;30;28492;-96
2022/11/18 00:38:46;;;;;;;;;0.00;0.00;;;;;;;;4719931;30;27909;-96
2022/11/18 00:41:13;;;;;;;;;0.00;0.00;;;;;;;;4721052;30;27846;-96
2022/11/18 00:43:38;;;;;;;;;0.00;0.00;;;;;;;;4720606;30;30450;-96
2022/11/18 00:46:04;;;;;;;;;0.00;0.00;;;;;;;;4729045;30;28962;-96
2022/11/18 00:48:30;;;;;;;;;0.00;0.00;;;;;;;;4739724;29;28392;-96
2022/11/18 00:50:56;;;;;;;;;0.00;0.00;;;;;;;;4757013;29;27845;-96
2022/11/18 00:53:23;;;;;;;;;0.00;0.00;;;;;;;;4755925;29;29974;-96
2022/11/18 00:55:49;;;;;;;;;0.00;0.00;;;;;;;;4755821;29;28833;-96
2022/11/18 00:58:15;;;;;;;;;0.00;0.00;;;;;;;;4728919;30;28373;-96
2022/11/18 01:00:41;;;;;;;;;0.00;0.00;;;;;;;;4721443;30;28662;-96
2022/11/18 01:03:06;;;;;;;;;0.00;0.00;;;;;;;;4721889;30;29868;-96
2022/11/18 01:05:32;;;;;;;;;0.00;0.00;;;;;;;;4719867;30;28417;-96
2022/11/18 01:07:57;;;;;;;;;0.00;0.00;;;;;;;;4721261;30;28554;-96
2022/11/18 01:10:22;;;;;;;;;0.00;0.00;;;;;;;;4721376;30;28531;-96
2022/11/18 01:15:36;;;;;;;;;0.00;0.00;;;;;;;;4740026;30;27814;-96
2022/11/18 01:18:02;;;;;;;;;0.00;0.00;;;;;;;;4725037;30;28400;-96
2022/11/18 01:20:27;;;;;;;;;0.00;0.00;;;;;;;;4710219;30;27938;-96
2022/11/18 01:22:52;;;;;;;;;0.00;0.00;;;;;;;;4725076;30;30010;-96
2022/11/18 01:25:17;;;;;;;;;0.00;0.00;;;;;;;;4728044;30;28500;-96
2022/11/18 01:27:43;;;;;;;;;0.00;0.00;;;;;;;;4728657;30;28412;-96
2022/11/18 01:30:08;;;;;;;;;0.00;0.00;;;;;;;;4726813;30;28482;-96
2022/11/18 01:32:33;;;;;;;;;0.00;0.00;;;;;;;;4718406;30;29826;-96
2022/11/18 01:34:59;;;;;;;;;0.00;0.00;;;;;;;;4713103;30;28862;-96
2022/11/18 01:37:24;;;;;;;;;0.00;0.00;;;;;;;;4723044;30;28497;-96
2022/11/18 01:39:49;;;;;;;;;0.00;0.00;;;;;;;;4720644;30;28340;-96
2022/11/18 01:42:15;;;;;;;;;0.00;0.00;;;;;;;;4719722;30;30046;-96
2022/11/18 01:44:56;;;;;;;;;0.00;0.00;;;;;;;;4708728;30;29259;-96
2022/11/18 01:47:21;;;;;;;;;0.00;0.00;;;;;;;;4703549;30;27787;-96
2022/11/18 01:49:46;;;;;;;;;0.00;0.00;;;;;;;;4703769;30;28472;-96
2022/11/18 01:52:12;;;;;;;;;0.00;0.00;;;;;;;;4703572;30;30363;-96
2022/11/18 01:54:39;;;;;;;;;0.00;0.00;;;;;;;;4701618;30;29616;-96
2022/11/18 01:57:08;;;;;;;;;0.00;0.00;;;;;;;;4701931;30;28457;-96
2022/11/18 01:59:36;;;;;;;;;0.00;0.00;;;;;;;;4708157;30;28279;-96
2022/11/18 02:02:04;;;;;;;;;0.00;0.00;;;;;;;;4718617;30;30921;-96
2022/11/18 02:04:29;;;;;;;;;0.00;0.00;;;;;;;;4718750;30;27823;-96
2022/11/18 02:06:55;;;;;;;;;0.00;0.00;;;;;;;;4719514;30;28410;-96
2022/11/18 02:09:20;;;;;;;;;0.00;0.00;;;;;;;;4720284;30;28391;-96
2022/11/18 02:11:50;;;;;;;;;0.00;0.00;;;;;;;;4720239;30;29856;-96
2022/11/18 02:14:16;;;;;;;;;0.00;0.00;;;;;;;;4720225;30;28689;-96
2022/11/18 02:16:47;;;;;;;;;0.00;0.00;;;;;;;;4704026;30;28540;-96
2022/11/18 02:19:18;;;;;;;;;0.00;0.00;;;;;;;;4704806;30;28050;-96
2022/11/18 02:21:43;;;;;;;;;0.00;0.00;;;;;;;;4719693;30;30250;-96
2022/11/18 02:24:08;;;;;;;;;0.00;0.00;;;;;;;;4719687;30;28846;-96
2022/11/18 02:26:39;;;;;;;;;0.00;0.00;;;;;;;;4701864;30;28644;-96
2022/11/18 02:29:15;;;;;;;;;0.00;0.00;;;;;;;;4700998;30;28428;-96
2022/11/18 02:31:41;;;;;;;;;0.00;0.00;;;;;;;;4701989;30;29837;-96
2022/11/18 02:34:06;;;;;;;;;0.00;0.00;;;;;;;;4701084;30;28470;-96
2022/11/18 02:36:39;;;;;;;;;0.00;0.00;;;;;;;;4702098;30;28397;-96
2022/11/18 02:39:07;;;;;;;;;0.00;0.00;;;;;;;;4706307;30;28590;-96
2022/11/18 02:41:34;;;;;;;;;0.00;0.00;;;;;;;;4707654;30;29787;-96
2022/11/18 02:44:03;;;;;;;;;0.00;0.00;;;;;;;;4705131;30;27790;-96
2022/11/18 02:46:31;;;;;;;;;0.00;0.00;;;;;;;;4701535;30;28546;-96
2022/11/18 02:48:58;;;;;;;;;0.00;0.00;;;;;;;;4700533;30;27965;-96
2022/11/18 02:51:25;;;;;;;;;0.00;0.00;;;;;;;;4699925;30;30003;-96
2022/11/18 02:53:52;;;;;;;;;0.00;0.00;;;;;;;;4699750;30;29159;-96
2022/11/18 02:56:18;;;;;;;;;0.00;0.00;;;;;;;;4700079;30;28912;-96
2022/11/18 02:58:43;;;;;;;;;0.00;0.00;;;;;;;;4698860;30;28503;-95
2022/11/18 03:01:27;;;;;;;;;0.00;0.00;;;;;;;;4699978;30;29867;-96
2022/11/18 03:03:53;;;;;;;;;0.00;0.00;;;;;;;;4699535;30;28917;-96
2022/11/18 03:06:35;;;;;;;;;0.00;0.00;;;;;;;;4699427;30;28420;-96
2022/11/18 03:09:00;;;;;;;;;0.00;0.00;;;;;;;;4700200;30;27950;-96
2022/11/18 03:11:28;;;;;;;;;0.00;0.00;;;;;;;;4700356;30;30192;-96
2022/11/18 03:13:56;;;;;;;;;0.00;0.00;;;;;;;;4698594;30;29141;-95
2022/11/18 03:16:28;;;;;;;;;0.00;0.00;;;;;;;;4700187;30;27874;-96
2022/11/18 03:18:56;;;;;;;;;0.00;0.00;;;;;;;;4707970;30;28625;-96
2022/11/18 03:21:28;;;;;;;;;0.00;0.00;;;;;;;;4716480;30;30124;-96
2022/11/18 03:23:57;;;;;;;;;0.00;0.00;;;;;;;;4713874;30;28665;-96
2022/11/18 03:26:30;;;;;;;;;0.00;0.00;;;;;;;;4714630;30;27724;-96
2022/11/18 03:29:16;;;;;;;;;0.00;0.00;;;;;;;;4713507;30;28492;-96
2022/11/18 03:31:46;;;;;;;;;0.00;0.00;;;;;;;;4713666;30;30111;-94
2022/11/18 03:34:13;;;;;;;;;0.00;0.00;;;;;;;;4713691;30;28740;-95
2022/11/18 03:36:46;;;;;;;;;0.00;0.00;;;;;;;;4714314;30;28519;-96
2022/11/18 03:39:13;;;;;;;;;0.00;0.00;;;;;;;;4714210;30;27914;-96
2022/11/18 03:41:42;;;;;;;;;0.00;0.00;;;;;;;;4718111;30;29858;-96
2022/11/18 03:44:15;;;;;;;;;0.00;0.00;;;;;;;;4730629;30;28684;-96
2022/11/18 03:46:44;;;;;;;;;0.00;0.00;;;;;;;;4731837;30;28321;-96
2022/11/18 03:49:12;;;;;;;;;0.00;0.00;;;;;;;;4739046;30;28786;-96
2022/11/18 03:51:40;;;;;;;;;0.00;0.00;;;;;;;;4752388;30;21297;-96
2022/11/18 03:54:08;;;;;;;;;0.00;0.00;;;;;;;;4753575;30;8932;-96
2022/11/18 03:56:42;;;;;;;;;0.00;0.00;;;;;;;;4753293;30;8838;-96
2022/11/18 03:59:11;;;;;;;;;0.00;0.00;;;;;;;;4750026;30;8953;-96
2022/11/18 04:01:52;;;;;;;;;0.00;0.00;;;;;;;;4744016;30;8942;-96
2022/11/18 04:04:17;;;;;;;;;16.00;15.00;;;;;;;;4733937;30;8941;-96
2022/11/18 04:06:45;;;;;;;;;0.00;0.00;;;;;;;;4735170;30;8852;-96
2022/11/18 04:09:13;;;;;;;;;0.00;0.00;;;;;;;;4735337;30;8832;-96
2022/11/18 04:12:01;;;;;;;;;0.00;0.00;;;;;;;;4735147;30;8793;-96
2022/11/18 04:14:27;;;;;;;;;0.00;0.00;;;;;;;;4734881;30;8801;-96
2022/11/18 04:16:53;;;;;;;;;0.00;0.00;;;;;;;;4736217;30;8852;-96
2022/11/18 04:19:18;;;;;;;;;0.00;0.00;;;;;;;;4738197;30;8858;-96
2022/11/18 04:21:44;;;;;;;;;0.00;0.00;;;;;;;;4738390;30;8996;-95
2022/11/18 04:24:09;;;;;;;;;0.00;0.00;;;;;;;;4737673;30;8861;-96
2022/11/18 04:26:34;;;;;;;;;0.00;0.00;;;;;;;;4737894;30;8830;-96
2022/11/18 04:28:59;;;;;;;;;0.00;0.00;;;;;;;;4737638;30;8893;-96
2022/11/18 04:31:25;;;;;;;;;0.00;0.00;;;;;;;;4737842;30;9648;-96
2022/11/18 04:33:50;;;;;;;;;0.00;0.00;;;;;;;;4737868;30;8889;-95
2022/11/18 04:36:15;;;;;;;;;0.00;0.00;;;;;;;;4737856;30;8858;-96
2022/11/18 04:38:40;;;;;;;;;0.00;0.00;;;;;;;;4737504;30;8869;-96
2022/11/18 04:41:05;;;;;;;;;0.00;0.00;;;;;;;;4737933;30;8847;-96
2022/11/18 04:43:31;;;;;;;;;0.00;0.00;;;;;;;;4737507;30;8846;-96
2022/11/18 04:45:56;;;;;;;;;0.00;0.00;;;;;;;;4739463;30;9562;-96
2022/11/18 04:48:21;;;;;;;;;0.00;0.00;;;;;;;;4737622;30;8858;-96
2022/11/18 04:50:46;;;;;;;;;0.00;0.00;;;;;;;;4737864;30;8845;-96
2022/11/18 04:53:12;;;;;;;;;0.00;0.00;;;;;;;;4737964;30;8831;-96
2022/11/18 04:55:37;;;;;;;;;0.00;0.00;;;;;;;;4739684;30;8880;-96
2022/11/18 04:58:02;;;;;;;;;0.00;0.00;;;;;;;;4736664;30;8858;-96
2022/11/18 05:00:28;;;;;;;;;0.00;0.00;;;;;;;;4742360;30;8993;-96
2022/11/18 05:02:53;;;;;;;;;0.00;0.00;;;;;;;;4737775;30;8961;-96
2022/11/18 05:05:18;;;;;;;;;0.00;0.00;;;;;;;;4737732;30;8855;-96
2022/11/18 05:07:43;;;;;;;;;0.00;0.00;;;;;;;;4738076;30;8838;-95
2022/11/18 05:10:08;;;;;;;;;0.00;0.00;;;;;;;;4746583;30;8840;-96
2022/11/18 05:12:49;;;;;;;;;0.00;0.00;;;;;;;;4756726;30;8856;-95
2022/11/18 05:15:18;;;;;;;;;0.00;0.00;;;;;;;;4754800;30;8824;-96
2022/11/18 05:17:44;;;;;;;;;0.00;0.00;;;;;;;;4754912;30;8957;-96
2022/11/18 05:20:09;;;;;;;;;0.00;0.00;;;;;;;;4756682;30;8848;-96
2022/11/18 05:22:35;;;;;;;;;0.00;0.00;;;;;;;;4740129;30;8858;-96
2022/11/18 05:25:00;;;;;;;;;0.00;0.00;;;;;;;;4737317;30;8866;-96
2022/11/18 05:27:25;;;;;;;;;0.00;0.00;;;;;;;;4752378;30;8858;-96
2022/11/18 05:29:51;;;;;;;;;0.00;0.00;;;;;;;;4737030;30;8953;-96
2022/11/18 05:32:16;;;;;;;;;0.00;0.00;;;;;;;;4739256;30;8851;-96
2022/11/18 05:34:41;;;;;;;;;0.00;0.00;;;;;;;;4737403;30;8947;-96
2022/11/18 05:37:07;;;;;;;;;0.00;0.00;;;;;;;;4737660;30;8951;-96
2022/11/18 05:39:32;;;;;;;;;0.00;0.00;;;;;;;;4736910;30;9705;-96
2022/11/18 05:44:41;;;;;;;;;0.00;0.00;;;;;;;;4769632;30;8821;-96
2022/11/18 05:47:07;;;;;;;;;0.00;0.00;;;;;;;;4754955;30;8899;-95
2022/11/18 05:49:32;;;;;;;;;0.00;0.00;;;;;;;;4755001;30;8864;-96
2022/11/18 05:51:57;;;;;;;;;0.00;0.00;;;;;;;;4754782;30;8848;-96
2022/11/18 05:54:22;;;;;;;;;0.00;0.00;;;;;;;;4754509;30;8868;-96
2022/11/18 05:56:47;;;;;;;;;0.00;0.00;;;;;;;;4754496;30;8840;-96
2022/11/18 05:59:13;;;;;;;;;0.00;0.00;;;;;;;;4753413;30;9593;-96
2022/11/18 06:01:49;;;;;;;;;0.00;0.00;;;;;;;;4753329;30;8844;-96
2022/11/18 06:04:28;;;;;;;;;0.00;0.00;;;;;;;;4753934;30;8836;-96
2022/11/18 06:06:57;;;;;;;;;0.00;0.00;;;;;;;;4736558;30;8805;-96
2022/11/18 06:09:24;;;;;;;;;4.67;4.67;;;;;;;;4742151;30;8777;-96
2022/11/18 06:11:52;;;;;;;;;0.00;0.00;;;;;;;;4754219;30;8937;-96
2022/11/18 06:14:24;;;;;;;;;0.00;0.00;;;;;;;;4754096;30;8970;-96
2022/11/18 06:16:52;;;;;;;;;0.00;0.00;;;;;;;;4754719;30;8925;-96
2022/11/18 06:19:17;;;;;;;;;0.00;0.00;;;;;;;;4755547;30;8882;-96
2022/11/18 06:21:44;;;;;;;;;0.00;0.00;;;;;;;;4754205;30;8965;-95
2022/11/18 06:24:10;;;;;;;;;0.00;0.00;;;;;;;;4753375;30;8783;-96
2022/11/18 06:26:36;;;;;;;;;0.00;0.00;;;;;;;;4751100;30;8952;-96
2022/11/18 06:29:02;;;;;;;;;0.00;0.00;;;;;;;;4738973;30;8858;-96
2022/11/18 06:31:27;;;;;;;;;0.00;0.00;;;;;;;;4736851;30;8951;-96
2022/11/18 06:33:52;;;;;;;;;0.00;0.00;;;;;;;;4736029;30;9041;-96
2022/11/18 06:36:18;;;;;;;;;0.00;0.00;;;;;;;;4736338;30;9743;-96
2022/11/18 06:38:43;;;;;;;;;0.00;0.00;;;;;;;;4750871;30;8848;-96
2022/11/18 06:41:08;;;;;;;;;0.00;0.00;;;;;;;;4753854;30;8836;-96
2022/11/18 06:43:42;;;;;;;;;0.00;0.00;;;;;;;;4753185;30;8856;-96
2022/11/18 06:49:10;;;;;;;;;0.00;0.00;;;;;;;;4714757;30;8928;-96
2022/11/18 06:51:35;;;;;;;;;0.00;0.00;;;;;;;;4697559;30;8881;-96
2022/11/18 06:54:00;;;;;;;;;0.00;0.00;;;;;;;;4682961;30;8996;-96
2022/11/18 06:56:25;;;;;;;;;0.00;0.00;;;;;;;;4682847;30;8935;-96
2022/11/18 06:58:51;;;;;;;;;0.00;0.00;;;;;;;;4682024;30;8845;-96
2022/11/18 07:01:18;;;;;;;;;0.00;0.00;;;;;;;;4696047;30;9924;-96
2022/11/18 07:03:44;;;;;;;;;0.00;0.00;;;;;;;;4696894;30;8868;-96
2022/11/18 07:06:10;;;;;;;;;0.00;0.00;;;;;;;;4682626;30;8879;-96
2022/11/18 07:08:36;;;;;;;;;0.00;0.00;;;;;;;;4682537;30;8837;-96
2022/11/18 07:11:02;;;;;;;;;0.00;0.00;;;;;;;;4682727;30;8852;-96
2022/11/18 07:13:27;;;;;;;;;0.00;0.00;;;;;;;;4682208;30;8999;-96
2022/11/18 07:15:52;;;;;;;;;0.00;0.00;;;;;;;;4682710;30;8865;-96
2022/11/18 07:18:17;;;;;;;;;0.00;0.00;;;;;;;;4713389;30;8996;-95
2022/11/18 07:20:42;;;;;;;;;0.33;0.33;;;;;;;;4717466;30;8868;-96
2022/11/18 07:23:08;;;;;;;;;0.00;0.00;;;;;;;;4718516;30;8852;-96
2022/11/18 07:25:33;;;;;;;;;0.00;0.00;;;;;;;;4766687;29;8946;-96
2022/11/18 07:27:58;;;;;;;;;0.00;0.00;;;;;;;;4758635;30;9631;-85
2022/11/18 07:30:24;;;;;;;;;0.00;0.00;;;;;;;;4760503;30;8957;-86
2022/11/18 07:32:49;;;;;;;;;0.00;0.00;;;;;;;;4762564;30;8855;-88
2022/11/18 07:35:16;;;;;;;;;0.00;0.00;;;;;;;;4771570;30;8860;-84
2022/11/18 07:37:41;;;;;;;;;0.00;0.00;;;;;;;;4771579;30;8859;-86
2022/11/18 07:40:06;;;;;;;;;0.00;0.00;;;;;;;;4764771;30;8856;-86
2022/11/18 07:42:41;;;;;;;;;0.00;0.00;;;;;;;;4754237;30;9585;-86
2022/11/18 07:45:07;;;;;;;;;0.00;0.00;;;;;;;;4759133;30;8948;-86
2022/11/18 07:47:32;;;;;;;;;0.00;0.00;;;;;;;;4747674;30;8858;-85
2022/11/18 07:49:57;;;;;;;;;0.00;0.00;;;;;;;;4768879;30;8903;-86
2022/11/18 07:52:23;;;;;;;;;0.00;0.00;;;;;;;;4753734;30;8847;-84
2022/11/18 07:54:48;;;;;;;;;0.00;0.00;;;;;;;;4753496;30;8906;-84
2022/11/18 07:57:13;;;;;;;;;0.00;0.00;;;;;;;;4746416;30;9627;-83
2022/11/18 07:59:38;;;;;;;;;0.00;0.00;;;;;;;;4758921;30;8932;-83
2022/11/18 08:02:03;;;;;;;;;0.00;0.00;;;;;;;;4767456;30;9552;-84
2022/11/18 08:04:28;;;;;;;;;0.00;0.00;;;;;;;;4743071;30;9595;-83
2022/11/18 08:06:54;;;;;;;;;0.00;0.00;;;;;;;;4760642;30;8859;-84
2022/11/18 08:09:19;;;;;;;;;0.00;0.00;;;;;;;;4739991;30;8854;-83
2022/11/18 08:11:44;;;;;;;;;0.00;0.00;;;;;;;;4735519;30;9658;-83
2022/11/18 08:14:09;;;;;;;;;0.00;0.00;;;;;;;;4736142;30;9429;-83
2022/11/18 08:16:34;;;;;;;;;0.00;0.00;;;;;;;;4739332;30;9597;-84
2022/11/18 08:19:00;;;;;;;;;0.00;0.00;;;;;;;;4737870;30;8905;-90
2022/11/18 08:21:25;;;;;;;;;0.00;0.00;;;;;;;;4755113;30;8852;-84
2022/11/18 08:23:51;;;;;;;;;0.00;0.00;;;;;;;;4737441;30;8984;-84
2022/11/18 08:26:16;;;;;;;;;0.00;0.00;;;;;;;;4747324;30;8853;-84
2022/11/18 08:28:42;;;;;;;;;0.00;0.00;;;;;;;;4755885;30;8923;-86
2022/11/18 08:31:08;;;;;;;;;0.00;0.00;;;;;;;;4736992;30;8885;-85
2022/11/18 08:33:33;;;;;;;;;0.00;0.00;;;;;;;;4746040;30;8933;-86
2022/11/18 08:36:04;;;;;;;;;0.00;0.00;;;;;;;;4734804;30;9013;-83
2022/11/18 08:38:29;;;;;;;;;0.00;0.00;;;;;;;;4740793;30;8863;-86
2022/11/18 08:40:54;;;;;;;;;0.00;0.00;;;;;;;;4755174;30;8856;-85
2022/11/18 08:43:19;;;;;;;;;0.00;0.00;;;;;;;;4738789;30;9770;-87
2022/11/18 08:45:44;;;;;;;;;0.00;0.00;;;;;;;;4737528;30;8878;-85
2022/11/18 08:48:10;;;;;;;;;0.00;0.00;;;;;;;;4744745;30;8863;-86
2022/11/18 08:50:35;;;;;;;;;1.00;1.00;;;;;;;;4739943;30;9305;-86
2022/11/18 08:53:00;;;;;;;;;0.00;0.00;;;;;;;;4746053;30;8966;-86
2022/11/18 08:55:25;;;;;;;;;0.00;0.00;;;;;;;;4739065;30;9092;-85
2022/11/18 08:57:50;;;;;;;;;0.00;0.00;;;;;;;;4728791;30;8864;-85
2022/11/18 09:00:16;;;;;;;;;0.00;0.00;;;;;;;;4758289;30;8959;-85
2022/11/18 09:02:41;;;;;;;;;0.00;0.00;;;;;;;;4750240;30;8874;-85
2022/11/18 09:05:06;;;;;;;;;0.00;0.00;;;;;;;;4750277;30;8878;-85
2022/11/18 09:07:31;;;;;;;;;0.00;0.00;;;;;;;;4740608;30;9527;-85
2022/11/18 09:09:57;;;;;;;;;0.00;0.00;;;;;;;;4737036;30;8850;-86
2022/11/18 09:12:22;;;;;;;;;1.00;1.00;;;;;;;;4749681;30;8968;-85
2022/11/18 09:14:47;;;;;;;;;0.00;0.00;;;;;;;;4743341;30;8867;-86
2022/11/18 09:17:13;;;;;;;;;0.00;0.00;;;;;;;;4734477;30;8869;-85
2022/11/18 09:19:38;;;;;;;;;0.00;0.00;;;;;;;;4741343;30;8885;-86
2022/11/18 09:22:03;;;;;;;;;0.00;0.00;;;;;;;;4757679;30;8955;-86
2022/11/18 09:24:28;;;;;;;;;0.00;0.00;;;;;;;;4738998;30;9715;-86
2022/11/18 09:26:54;;;;;;;;;0.00;0.00;;;;;;;;4756991;30;8871;-86
2022/11/18 09:29:24;;;;;;;;;0.00;0.00;;;;;;;;4756877;30;9360;-86
2022/11/18 09:31:49;;;;;;;;;0.00;0.00;;;;;;;;4753833;30;8818;-86
2022/11/18 09:34:14;;;;;;;;;0.00;0.00;;;;;;;;4739945;30;8886;-87
2022/11/18 09:36:39;;;;;;;;;0.00;0.00;;;;;;;;4740006;30;8912;-86
2022/11/18 09:39:04;;;;;;;;;0.00;0.00;;;;;;;;4753085;30;9092;-86
2022/11/18 09:41:38;;;;;;;;;0.00;0.00;;;;;;;;4741319;30;9647;-86
2022/11/18 09:44:13;;;;;;;;;0.00;0.00;;;;;;;;4740004;30;8858;-86
2022/11/18 09:46:47;;;;;;;;;0.00;0.00;;;;;;;;4757191;30;8815;-86
2022/11/18 09:49:21;;;;;;;;;0.00;0.00;;;;;;;;4733242;30;8862;-86
2022/11/18 09:51:47;;;;;;;;;0.00;0.00;;;;;;;;4744095;30;8803;-86
2022/11/18 09:54:23;;;;;;;;;0.00;0.00;;;;;;;;4748673;30;8879;-86
2022/11/18 09:56:50;;;;;;;;;0.00;0.00;;;;;;;;4757980;30;8827;-86
2022/11/18 09:59:17;;;;;;;;;0.00;0.00;;;;;;;;4749188;30;8844;-86
2022/11/18 10:01:43;;;;;;;;;0.00;0.00;;;;;;;;4747817;30;8832;-86
2022/11/18 10:04:12;;;;;;;;;0.00;0.00;;;;;;;;4760531;30;8870;-86
2022/11/18 10:06:37;;;;;;;;;0.00;0.00;;;;;;;;4738646;30;8932;-86
2022/11/18 10:09:10;;;;;;;;;0.00;0.00;;;;;;;;4739765;30;8883;-86
2022/11/18 10:11:44;;;;;;;;;0.00;0.00;;;;;;;;4752005;30;8823;-86
2022/11/18 10:14:10;;;;;;;;;0.00;0.00;;;;;;;;4738148;30;8828;-86
2022/11/18 10:16:35;;;;;;;;;0.00;0.00;;;;;;;;4758810;30;8880;-87
2022/11/18 10:19:09;;;;;;;;;0.00;0.00;;;;;;;;4754607;30;10140;-86
2022/11/18 10:21:53;;;;;;;;;0.00;0.00;;;;;;;;4746301;30;10113;-86
2022/11/18 10:24:23;;;;;;;;;0.00;0.00;;;;;;;;4736186;30;8992;-86
2022/11/18 10:26:56;;;;;;;;;0.00;0.00;;;;;;;;5080325;27;45417;-85
2022/11/18 10:29:22;;;;;;;;;0.00;0.00;;;;;;;;5103918;27;45069;-86
2022/11/18 10:32:09;;;;;;;;;0.00;0.00;;;;;;;;5115184;27;8836;-86
2022/11/18 10:34:44;;;;;;;;;0.00;0.00;;;;;;;;5109871;27;8836;-85
2022/11/18 10:37:21;;;;;;;;;0.00;0.00;;;;;;;;5107119;27;8813;-85
2022/11/18 10:39:51;;;;;;;;;0.00;0.00;;;;;;;;5105287;27;9000;-86
2022/11/18 10:42:20;;;;;;;;;0.00;0.00;;;;;;;;5146610;27;8794;-87
2022/11/18 10:44:46;;;;;;;;;0.00;0.00;;;;;;;;5112576;27;8805;-87
2022/11/18 10:47:22;;;;;;;;;0.00;0.00;;;;;;;;5102578;27;8832;-86
2022/11/18 10:49:48;;;;;;;;;0.00;0.00;;;;;;;;5132904;27;8821;-86
2022/11/18 10:52:13;;;;;;;;;0.00;0.00;;;;;;;;5103279;27;8843;-86
2022/11/18 10:54:39;;;;;;;;;0.00;0.00;;;;;;;;5098965;27;8821;-86
2022/11/18 10:57:06;;;;;;;;;0.00;0.00;;;;;;;;5102110;27;8822;-86
2022/11/18 10:59:33;;;;;;;;;0.00;0.00;;;;;;;;5106963;27;8742;-87
2022/11/18 11:02:11;;;;;;;;;0.00;0.00;;;;;;;;5103726;27;8818;-89
2022/11/18 11:04:37;;;;;;;;;0.00;0.00;;;;;;;;5108438;27;8797;-89
2022/11/18 11:07:14;;;;;;;;;0.00;0.00;;;;;;;;5115988;27;11493;-89
2022/11/18 11:09:39;;;;;;;;;0.00;0.00;;;;;;;;5142961;27;8805;-88
2022/11/18 11:12:12;;;;;;;;;0.00;0.00;;;;;;;;5121202;27;11529;-88
2022/11/18 11:14:52;;;;;;;;;0.00;0.00;;;;;;;;5109811;27;8829;-89
2022/11/18 11:17:20;;;;;;;;;0.00;0.00;;;;;;;;5108252;27;11437;-89
2022/11/18 11:19:51;;;;;;;;;0.00;0.00;;;;;;;;5106880;27;8838;-87
2022/11/18 11:22:16;;;;;;;;;0.00;0.00;;;;;;;;5113425;27;8818;-85
2022/11/18 11:24:42;;;;;;;;;0.00;0.00;;;;;;;;5117726;27;8833;-87
2022/11/18 11:27:23;;;;;;;;;0.00;0.00;;;;;;;;5114353;27;8781;-87
2022/11/18 11:30:03;;;;;;;;;0.00;0.00;;;;;;;;5130492;27;8877;-86
2022/11/18 11:32:41;;;;;;;;;0.00;0.00;;;;;;;;5128495;27;8794;-87
2022/11/18 11:35:22;;;;;;;;;0.00;0.00;;;;;;;;5113915;27;8826;-86
2022/11/18 11:37:53;;;;;;;;;0.00;0.00;;;;;;;;5109844;27;11415;-86
2022/11/18 11:40:22;;;;;;;;;0.00;0.00;;;;;;;;5113666;27;11497;-84
2022/11/18 11:43:03;;;;;;;;;0.00;0.00;;;;;;;;5111484;27;11397;-86
2022/11/18 11:45:38;;;;;;;;;0.00;0.00;;;;;;;;5091941;28;8816;-86
2022/11/18 11:48:18;;;;;;;;;0.00;0.00;;;;;;;;5110840;27;9746;-86
2022/11/18 11:50:54;;;;;;;;;0.00;0.00;;;;;;;;5111519;27;12184;-87
2022/11/18 11:53:19;;;;;;;;;0.00;0.00;;;;;;;;5111713;27;12295;-87
2022/11/18 11:55:55;;;;;;;;;0.00;0.00;;;;;;;;5113131;27;11452;-84
2022/11/18 11:58:40;;;;;;;;;0.00;0.00;;;;;;;;5109507;27;9182;-86
2022/11/18 12:01:21;;;;;;;;;0.00;0.00;;;;;;;;5109349;27;11381;-86
2022/11/18 12:03:47;;;;;;;;;0.00;0.00;;;;;;;;5111616;27;11397;-86
2022/11/18 12:06:12;;;;;;;;;0.00;0.00;;;;;;;;5118129;27;8822;-87
2022/11/18 12:08:42;;;;;;;;;0.00;0.00;;;;;;;;5120527;27;8821;-87
2022/11/18 12:11:07;;;;;;;;;0.00;0.00;;;;;;;;5115250;27;8797;-89
2022/11/18 12:13:44;;;;;;;;;0.00;0.00;;;;;;;;5099264;28;11442;-89
2022/11/18 12:16:19;;;;;;;;;0.00;0.00;;;;;;;;5103103;27;9633;-86
2022/11/18 12:18:53;;;;;;;;;0.00;0.00;;;;;;;;5121244;27;12195;-87
2022/11/18 12:21:37;;;;;;;;;0.00;0.00;;;;;;;;5096796;28;11441;-90
2022/11/18 12:24:21;;;;;;;;;0.00;0.00;;;;;;;;5101011;27;8804;-86
2022/11/18 12:26:48;;;;;;;;;0.00;0.00;;;;;;;;5123350;27;11511;-92
2022/11/18 12:29:19;;;;;;;;;0.00;0.00;;;;;;;;5097882;28;11504;-86
2022/11/18 12:31:45;;;;;;;;;0.00;0.00;;;;;;;;5123917;27;11371;-86
2022/11/18 12:34:37;;;;;;;;;0.00;0.00;;;;;;;;5095864;27;11395;-86
2022/11/18 12:37:21;;;;;;;;;0.00;0.00;;;;;;;;5099161;27;12423;-86
2022/11/18 12:39:47;;;;;;;;;0.00;0.00;;;;;;;;5113573;27;11397;-86
2022/11/18 12:45:35;;;;;;;;;0.00;0.00;;;;;;;;5112914;27;8777;-85
2022/11/18 12:48:00;;;;;;;;;0.00;0.00;;;;;;;;5106595;27;8833;-85
2022/11/18 12:50:44;;;;;;;;;0.00;0.00;;;;;;;;5116422;27;11468;-86
2022/11/18 12:53:29;;;;;;;;;0.00;0.00;;;;;;;;5093505;28;8804;-85
2022/11/18 12:55:54;;;;;;;;;0.00;0.00;;;;;;;;5095406;27;11477;-86
2022/11/18 12:58:21;;;;;;;;;0.00;0.00;;;;;;;;5104928;27;11382;-86
2022/11/18 13:00:52;;;;;;;;;0.00;0.00;;;;;;;;5105258;27;8801;-86
2022/11/18 13:03:24;;;;;;;;;0.00;0.00;;;;;;;;5113144;27;8804;-86
2022/11/18 13:05:57;;;;;;;;;0.00;0.00;;;;;;;;5118174;27;11435;-86
2022/11/18 13:08:22;;;;;;;;;0.00;0.00;;;;;;;;5103463;27;11403;-86
2022/11/18 13:10:51;;;;;;;;;0.00;0.00;;;;;;;;5109939;27;11396;-87
2022/11/18 13:13:20;;;;;;;;;0.00;0.00;;;;;;;;5112456;27;8916;-86
2022/11/18 13:18:29;;;;;;;;;0.00;0.00;;;;;;;;5108584;27;8782;-86
2022/11/18 13:20:56;;;;;;;;;0.00;0.00;;;;;;;;5117679;27;12237;-86
2022/11/18 13:26:17;;;;;;;;;0.00;0.00;;;;;;;;5119471;27;11405;-86
2022/11/18 13:28:57;;;;;;;;;0.00;0.00;;;;;;;;5116235;27;11435;-84
2022/11/18 13:31:27;;;;;;;;;0.00;0.00;;;;;;;;5113449;27;11356;-85
2022/11/18 13:33:52;;;;;;;;;0.00;0.00;;;;;;;;5118836;27;11438;-86
2022/11/18 13:36:19;;;;;;;;;0.00;0.00;;;;;;;;5103577;27;12342;-86
2022/11/18 13:39:13;;;;;;;;;0.00;0.00;;;;;;;;5114581;27;8808;-86
2022/11/18 13:41:39;;;;;;;;;0.00;0.00;;;;;;;;5090335;27;8797;-86
2022/11/18 13:44:11;;;;;;;;;0.00;0.00;;;;;;;;5094300;27;11441;-85
2022/11/18 13:46:37;;;;;;;;;0.00;0.00;;;;;;;;5105312;27;8799;-86
2022/11/18 13:49:02;;;;;;;;;0.00;0.00;;;;;;;;5096516;28;11421;-86
2022/11/18 13:51:28;;;;;;;;;0.00;0.00;;;;;;;;5091363;28;11428;-86
2022/11/18 13:53:53;;;;;;;;;0.00;0.00;;;;;;;;5111933;27;8899;-87
2022/11/18 13:56:23;;;;;;;;;0.00;0.00;;;;;;;;5101651;27;8950;-86
2022/11/18 13:58:48;;;;;;;;;0.00;0.00;;;;;;;;5094617;28;8943;-86
2022/11/18 14:01:20;;;;;;;;;0.00;0.00;;;;;;;;5091434;28;11608;-86
2022/11/18 14:03:51;;;;;;;;;0.00;0.00;;;;;;;;5109510;27;10078;-86
2022/11/18 14:06:26;;;;;;;;;0.00;0.00;;;;;;;;5106991;28;11467;-86
2022/11/18 14:09:02;;;;;;;;;0.00;0.00;;;;;;;;5109389;27;11408;-86
2022/11/18 14:11:39;;;;;;;;;0.00;0.00;;;;;;;;5098091;28;11528;-86
2022/11/18 14:14:04;;;;;;;;;0.00;0.00;;;;;;;;5109050;27;11393;-85
2022/11/18 14:16:31;;;;;;;;;0.00;0.00;;;;;;;;5091442;28;11517;-87
2022/11/18 14:18:57;;;;;;;;;0.00;0.00;;;;;;;;5108895;27;8914;-84
2022/11/18 14:21:26;;;;;;;;;0.00;0.00;;;;;;;;5115349;27;11535;-85
2022/11/18 14:23:51;;;;;;;;;0.00;0.00;;;;;;;;5109060;27;8814;-86
2022/11/18 14:26:25;;;;;;;;;0.00;0.00;;;;;;;;5109840;27;11411;-86
2022/11/18 14:28:55;;;;;;;;;0.00;0.00;;;;;;;;5110097;27;9418;-86
2022/11/18 14:31:24;;;;;;;;;0.00;0.00;;;;;;;;5093146;28;11509;-86
2022/11/18 14:34:04;;;;;;;;;0.00;0.00;;;;;;;;5115651;27;11409;-86
2022/11/18 14:36:29;;;;;;;;;0.00;0.00;;;;;;;;5113920;27;11410;-86
2022/11/18 14:38:54;;;;;;;;;0.00;0.00;;;;;;;;5112894;27;11413;-85
2022/11/18 14:44:04;;;;;;;;;0.00;0.00;;;;;;;;5117925;27;9686;-85
2022/11/18 14:46:30;;;;;;;;;0.00;0.00;;;;;;;;5098242;28;11451;-86
2022/11/18 14:48:55;;;;;;;;;0.00;0.00;;;;;;;;5096701;27;8840;-86
2022/11/18 14:51:20;;;;;;;;;0.00;0.00;;;;;;;;5095925;28;8895;-85
2022/11/18 14:53:45;;;;;;;;;0.00;0.00;;;;;;;;5097215;28;8832;-86
2022/11/18 14:56:19;;;;;;;;;0.00;0.00;;;;;;;;5112306;27;8856;-86
2022/11/18 14:58:44;;;;;;;;;0.00;0.00;;;;;;;;5096324;27;8804;-86
2022/11/18 15:01:10;;;;;;;;;0.00;0.00;;;;;;;;5092840;28;11558;-86
2022/11/18 15:03:35;;;;;;;;;0.00;0.00;;;;;;;;5095119;27;8975;-86
2022/11/18 15:06:01;;;;;;;;;0.00;0.00;;;;;;;;5112017;27;11412;-86
2022/11/18 15:08:26;;;;;;;;;0.00;0.00;;;;;;;;5089911;28;9982;-86
2022/11/18 15:10:51;;;;;;;;;0.00;0.00;;;;;;;;5093780;27;9009;-86
2022/11/18 15:13:16;;;;;;;;;0.00;0.00;;;;;;;;5094593;27;10081;-86
2022/11/18 15:15:41;;;;;;;;;0.00;0.00;;;;;;;;5114592;27;8855;-86
2022/11/18 15:18:07;;;;;;;;;0.00;0.00;;;;;;;;5093837;28;9210;-86
2022/11/18 15:20:32;;;;;;;;;0.00;0.00;;;;;;;;5096774;28;8804;-86